createdAt,value
2022-11-06T00:03:01.246Z,7.69
2022-11-06T00:07:57.753Z,7.67
2022-11-06T00:12:54.096Z,7.63
2022-11-06T00:17:50.756Z,7.62
2022-11-06T00:22:47.123Z,7.59
2022-11-06T00:27:43.823Z,7.57
2022-11-06T00:32:40.541Z,7.48
2022-11-06T00:37:36.957Z,7.54
2022-11-06T00:42:33.371Z,7.45
2022-11-06T00:47:29.715Z,7.47
2022-11-06T00:52:26.090Z,7.44
2022-11-06T00:57:22.440Z,7.44
2022-11-06T01:02:19.632Z,7.44
2022-11-06T01:07:16.108Z,7.49
2022-11-06T01:12:13.923Z,7.51
2022-11-06T01:17:11.121Z,7.49
2022-11-06T01:22:07.593Z,7.55
2022-11-06T01:32:20.683Z,7.41
2022-11-06T01:37:17.032Z,7.43
2022-11-06T01:42:14.917Z,7.38
2022-11-06T01:47:37.667Z,7.38
2022-11-06T01:52:34.646Z,7.32
2022-11-06T01:57:31.062Z,7.27
2022-11-06T02:02:27.510Z,7.23
2022-11-06T02:07:23.950Z,7.31
2022-11-06T02:12:38.869Z,7.33
2022-11-06T02:17:38.219Z,7.35
2022-11-06T02:22:43.034Z,7.41
2022-11-06T02:27:44.515Z,7.47
2022-11-06T02:32:45.486Z,7.52
2022-11-06T02:37:45.867Z,7.50
2022-11-06T02:42:48.726Z,7.46
2022-11-06T02:47:50.421Z,7.40
2022-11-06T02:53:02.774Z,7.36
2022-11-06T02:58:05.971Z,7.25
2022-11-06T03:03:31.642Z,7.16
2022-11-06T03:08:46.578Z,7.13
2022-11-06T03:13:48.445Z,7.02
2022-11-06T03:19:02.714Z,6.92
2022-11-06T03:24:10.592Z,6.92
2022-11-06T03:29:14.422Z,6.88
2022-11-06T03:34:15.757Z,6.72
2022-11-06T03:39:17.029Z,6.65
2022-11-06T03:44:17.747Z,6.55
2022-11-06T03:49:21.875Z,6.53
2022-11-06T03:54:23.469Z,6.43
2022-11-06T03:59:23.421Z,6.48
2022-11-06T04:04:49.060Z,6.37
2022-11-06T04:10:11.699Z,6.41
2022-11-06T04:15:12.721Z,6.39
2022-11-06T04:20:36.058Z,6.40
2022-11-06T04:26:09.250Z,6.52
2022-11-06T04:31:28.262Z,6.59
2022-11-06T04:36:33.438Z,6.57
2022-11-06T04:42:07.845Z,6.53
2022-11-06T04:47:07.786Z,6.48
2022-11-06T04:52:08.363Z,6.41
2022-11-06T04:57:04.763Z,6.38
2022-11-06T05:02:01.796Z,6.32
2022-11-06T05:06:58.266Z,6.21
2022-11-06T05:11:54.598Z,6.27
2022-11-06T05:16:50.999Z,6.41
2022-11-06T05:22:05.751Z,6.42
2022-11-06T05:27:02.122Z,6.31
2022-11-06T05:31:58.566Z,6.38
2022-11-06T05:36:54.947Z,6.30
2022-11-06T05:41:51.304Z,6.19
2022-11-06T05:46:49.624Z,6.14
2022-11-06T05:51:46.585Z,6.14
2022-11-06T05:56:43.087Z,6.08
2022-11-06T06:01:39.539Z,5.98
2022-11-06T06:06:36.577Z,6.12
2022-11-06T06:11:32.964Z,6.05
2022-11-06T06:16:29.321Z,5.94
2022-11-06T06:21:25.661Z,5.95
2022-11-06T06:26:22.014Z,6.02
2022-11-06T06:31:20.174Z,6.16
2022-11-06T06:36:16.738Z,6.14
2022-11-06T06:41:13.260Z,6.32
2022-11-06T06:46:09.918Z,6.36
2022-11-06T06:51:07.915Z,6.57
2022-11-06T06:56:04.829Z,6.76
2022-11-06T07:01:03.152Z,6.91
2022-11-06T07:05:59.714Z,7.02
2022-11-06T07:11:08.235Z,7.14
2022-11-06T07:16:05.748Z,7.31
2022-11-06T07:21:05.549Z,7.46
2022-11-06T07:26:02.730Z,7.50
2022-11-06T07:31:01.258Z,7.48
2022-11-06T07:36:02.255Z,7.54
2022-11-06T07:41:01.873Z,7.54
2022-11-06T07:45:59.858Z,7.70
2022-11-06T07:50:57.307Z,7.89
2022-11-06T07:55:55.470Z,8.02
2022-11-06T08:00:54.255Z,8.18
2022-11-06T08:05:50.931Z,8.31
2022-11-06T08:10:47.723Z,8.27
2022-11-06T08:15:44.432Z,8.37
2022-11-06T08:20:41.137Z,8.58
2022-11-06T08:25:37.923Z,8.63
2022-11-06T08:30:34.320Z,8.80
2022-11-06T08:35:31.450Z,8.89
2022-11-06T08:40:30.945Z,9.03
2022-11-06T08:45:27.803Z,9.20
2022-11-06T08:50:24.187Z,9.23
2022-11-06T08:55:20.558Z,9.35
2022-11-06T09:00:17.001Z,9.46
2022-11-06T09:05:13.450Z,9.50
2022-11-06T09:10:09.908Z,9.57
2022-11-06T09:15:07.315Z,9.59
2022-11-06T09:20:03.908Z,9.66
2022-11-06T09:25:04.523Z,9.97
2022-11-06T09:30:01.140Z,10.12
2022-11-06T09:34:57.566Z,10.13
2022-11-06T09:39:53.943Z,10.23
2022-11-06T09:45:10.614Z,10.54
2022-11-06T09:50:15.045Z,10.41
2022-11-06T09:55:20.435Z,10.60
2022-11-06T10:00:17.928Z,10.72
2022-11-06T10:05:32.003Z,10.83
2022-11-06T10:10:45.871Z,10.71
2022-11-06T10:15:54.850Z,10.94
2022-11-06T10:20:58.478Z,11.20
2022-11-06T10:26:00.850Z,11.26
2022-11-06T10:31:13.807Z,11.32
2022-11-06T10:36:34.000Z,11.25
2022-11-06T10:41:35.869Z,11.06
2022-11-06T10:46:40.064Z,11.24
2022-11-06T10:51:58.576Z,11.32
2022-11-06T10:57:22.331Z,11.22
2022-11-06T11:02:32.605Z,11.12
2022-11-06T11:07:33.599Z,11.07
2022-11-06T11:12:32.854Z,11.15
2022-11-06T11:17:29.227Z,11.26
2022-11-06T11:22:31.951Z,11.26
2022-11-06T11:27:32.853Z,11.33
2022-11-06T11:32:31.080Z,11.33
2022-11-06T11:37:31.296Z,11.32
2022-11-06T11:42:30.141Z,11.46
2022-11-06T11:47:26.493Z,11.52
2022-11-06T11:52:23.110Z,11.80
2022-11-06T11:57:23.629Z,11.99
2022-11-06T12:03:04.960Z,12.49
2022-11-06T12:08:01.827Z,12.88
2022-11-06T12:13:01.294Z,12.92
2022-11-06T12:18:03.292Z,12.77
2022-11-06T12:23:02.062Z,12.35
2022-11-06T12:28:01.738Z,12.34
2022-11-06T12:33:14.511Z,12.44
2022-11-06T12:38:35.269Z,12.24
2022-11-06T12:43:44.363Z,11.95
2022-11-06T12:48:53.936Z,11.85
2022-11-06T12:54:28.084Z,11.78
2022-11-06T12:59:58.589Z,11.57
2022-11-06T13:05:17.507Z,11.47
2022-11-06T13:10:23.220Z,11.41
2022-11-06T13:15:28.427Z,11.17
2022-11-06T13:20:30.021Z,11.06
2022-11-06T13:25:39.372Z,11.08
2022-11-06T13:30:38.341Z,11.33
2022-11-06T13:35:37.595Z,11.44
2022-11-06T13:40:39.797Z,11.37
2022-11-06T13:45:48.211Z,11.17
2022-11-06T13:50:55.171Z,10.98
2022-11-06T13:56:15.900Z,10.85
2022-11-06T14:01:21.488Z,10.78
2022-11-06T14:06:24.123Z,10.78
2022-11-06T14:11:26.860Z,10.89
2022-11-06T14:16:23.225Z,10.79
2022-11-06T14:21:25.411Z,10.78
2022-11-06T14:26:43.853Z,10.78
2022-11-06T14:32:10.525Z,10.71
2022-11-06T14:37:18.790Z,10.66
2022-11-06T14:42:17.129Z,10.63
2022-11-06T14:47:26.612Z,10.59
2022-11-06T14:52:24.935Z,10.62
2022-11-06T14:57:34.496Z,10.58
2022-11-06T15:02:34.631Z,10.40
2022-11-06T15:08:08.340Z,10.28
2022-11-06T15:13:16.928Z,10.17
2022-11-06T15:18:24.805Z,10.00
2022-11-06T15:23:30.819Z,9.92
2022-11-06T15:28:31.969Z,9.83
2022-11-06T15:33:36.733Z,9.71
2022-11-06T15:38:43.666Z,9.65
2022-11-06T15:43:40.642Z,9.60
2022-11-06T15:48:37.241Z,9.60
2022-11-06T15:53:38.269Z,9.53
2022-11-06T15:58:38.129Z,9.46
2022-11-06T16:03:55.964Z,9.50
2022-11-06T16:08:52.804Z,9.46
2022-11-06T16:13:49.532Z,9.46
2022-11-06T16:18:46.418Z,9.48
2022-11-06T16:23:52.824Z,9.41
2022-11-06T16:28:51.352Z,9.39
2022-11-06T16:33:56.031Z,9.40
2022-11-06T16:38:53.900Z,9.36
2022-11-06T16:44:31.341Z,9.38
2022-11-06T16:49:33.707Z,9.34
2022-11-06T16:54:31.387Z,9.38
2022-11-06T16:59:27.764Z,9.26
2022-11-06T17:04:26.494Z,9.27
2022-11-06T17:09:22.818Z,9.27
2022-11-06T17:14:20.974Z,9.32
2022-11-06T17:19:19.113Z,9.34
2022-11-06T17:24:36.051Z,9.24
2022-11-06T17:29:33.582Z,9.24
2022-11-06T17:34:30.000Z,9.34
2022-11-06T17:39:26.418Z,9.36
2022-11-06T17:44:22.875Z,9.28
2022-11-06T17:49:19.337Z,9.26
2022-11-06T17:54:17.975Z,9.11
2022-11-06T17:59:14.415Z,8.93
2022-11-06T18:04:10.833Z,8.85
2022-11-06T18:09:07.912Z,8.57
2022-11-06T18:14:04.370Z,8.34
2022-11-06T18:19:01.719Z,8.35
2022-11-06T18:23:58.103Z,8.46
2022-11-06T18:28:54.721Z,8.24
2022-11-06T18:33:51.104Z,8.22
2022-11-06T18:38:47.600Z,8.20
2022-11-06T18:43:44.736Z,8.27
2022-11-06T18:48:41.490Z,8.17
2022-11-06T18:53:39.324Z,8.09
2022-11-06T18:58:36.223Z,8.19
2022-11-06T19:03:33.103Z,8.31
2022-11-06T19:08:29.838Z,8.36
2022-11-06T19:13:26.273Z,8.45
2022-11-06T19:18:22.861Z,8.39
2022-11-06T19:23:19.302Z,8.39
2022-11-06T19:28:17.166Z,8.41
2022-11-06T19:33:14.074Z,8.35
2022-11-06T19:38:10.679Z,8.37
2022-11-06T19:43:08.423Z,8.33
2022-11-06T19:48:05.256Z,8.39
2022-11-06T19:53:01.646Z,8.34
2022-11-06T19:57:58.045Z,8.41
2022-11-06T20:02:54.418Z,8.43
2022-11-06T20:07:50.776Z,8.45
2022-11-06T20:12:47.179Z,8.57
2022-11-06T20:17:43.587Z,8.60
2022-11-06T20:22:39.952Z,8.64
2022-11-06T20:27:36.432Z,8.58
2022-11-06T20:32:33.805Z,8.65
2022-11-06T20:37:30.234Z,8.73
2022-11-06T20:42:26.649Z,8.82
2022-11-06T20:47:23.020Z,8.94
2022-11-06T20:52:19.397Z,9.01
2022-11-06T20:57:16.548Z,9.11
2022-11-06T21:02:13.322Z,9.20
2022-11-06T21:07:09.909Z,9.18
2022-11-06T21:12:07.171Z,9.19
2022-11-06T21:17:03.710Z,9.22
2022-11-06T21:22:00.814Z,9.18
2022-11-06T21:26:57.269Z,9.23
2022-11-06T21:31:54.483Z,9.28
2022-11-06T21:36:51.013Z,9.34
2022-11-06T21:41:47.651Z,9.40
2022-11-06T21:46:45.801Z,9.42
2022-11-06T21:51:42.482Z,9.47
2022-11-06T21:56:40.129Z,9.40
2022-11-06T22:01:37.740Z,9.45
2022-11-06T22:06:34.636Z,9.46
2022-11-06T22:11:34.923Z,9.53
2022-11-06T22:16:36.272Z,9.49
2022-11-06T22:21:34.762Z,9.39
2022-11-06T22:26:32.513Z,9.44
2022-11-06T22:31:29.875Z,9.50
2022-11-06T22:36:26.964Z,9.48
2022-11-06T22:41:24.925Z,9.56
2022-11-06T22:46:23.059Z,9.62
2022-11-06T22:51:28.746Z,9.67
2022-11-06T22:56:26.515Z,9.66
2022-11-06T23:01:25.468Z,9.67
2022-11-06T23:06:22.697Z,9.76
2022-11-06T23:11:19.171Z,9.76
2022-11-06T23:16:39.265Z,9.76
2022-11-06T23:21:35.689Z,9.78
2022-11-06T23:26:32.120Z,9.82
2022-11-06T23:31:28.642Z,9.86
2022-11-06T23:36:25.152Z,9.88
2022-11-06T23:41:39.959Z,9.95
2022-11-06T23:46:36.379Z,9.97
2022-11-06T23:51:32.745Z,9.96
2022-11-06T23:56:29.199Z,9.97
